Time;durP1;ratioP1;P1;durP2;ratioP2;P2;SDS_P1;SDS_P2;PMS_P1;PMS_P2;Temp;Humidity;BMP_temperature;BMP_pressure;BME280_temperature;BME280_humidity;BME280_pressure;Samples;Min_cycle;Max_cycle;Signal;HPM_P1;HPM_P2
2023/08/23 00:01:17;;;;;;;6.50;3.20;;;;;;;20.28;87.46;99283.45;108014;1306;22228;-40
2023/08/23 00:03:42;;;;;;;4.20;3.40;;;;;;;20.32;86.51;99285.91;108013;1306;22415;-40
2023/08/23 00:06:07;;;;;;;6.00;4.10;;;;;;;20.32;86.23;99284.06;108020;1306;22229;-40
2023/08/23 00:08:32;;;;;;;4.50;3.50;;;;;;;20.33;86.21;99288.07;108001;1306;23228;-40
2023/08/23 00:10:58;;;;;;;5.40;3.80;;;;;;;20.36;85.93;99296.02;108017;1306;23007;-41
2023/08/23 00:13:23;;;;;;;4.50;3.40;;;;;;;20.37;86.22;99287.79;108016;1306;22155;-39
2023/08/23 00:15:50;;;;;;;6.00;3.60;;;;;;;20.36;86.74;99286.73;108025;1306;22513;-42
2023/08/23 00:18:15;;;;;;;6.30;3.40;;;;;;;20.38;86.63;99292.10;108020;1306;22388;-41
2023/08/23 00:20:40;;;;;;;6.80;3.80;;;;;;;20.39;86.74;99296.83;108008;1306;22222;-39
2023/08/23 00:23:06;;;;;;;5.70;3.60;;;;;;;20.36;86.52;99296.76;108040;1306;22437;-42
2023/08/23 00:25:31;;;;;;;4.60;3.80;;;;;;;20.32;87.10;99296.77;108015;1306;22222;-41
2023/08/23 00:27:57;;;;;;;6.00;3.70;;;;;;;20.28;86.68;99298.36;108030;1306;23197;-40
2023/08/23 00:30:22;;;;;;;5.60;3.30;;;;;;;20.24;86.73;99297.55;107696;1306;25290;-37
2023/08/23 00:32:47;;;;;;;4.90;3.50;;;;;;;20.19;86.25;99299.60;106919;1306;25529;-40
2023/08/23 00:35:13;;;;;;;5.80;3.70;;;;;;;20.13;86.62;99297.55;106916;1306;24736;-37
2023/08/23 00:37:38;;;;;;;4.00;3.40;;;;;;;20.08;86.31;99298.20;106925;1306;22561;-38
2023/08/23 00:40:07;;;;;;;4.40;3.60;;;;;;;20.02;86.25;99291.14;106936;1306;22568;-37
2023/08/23 00:42:32;;;;;;;6.20;3.70;;;;;;;19.94;86.52;99291.28;108028;1306;22196;-39
2023/08/23 00:44:57;;;;;;;5.10;3.70;;;;;;;19.88;87.70;99292.92;108012;1306;22259;-40
2023/08/23 00:47:23;;;;;;;6.10;3.50;;;;;;;19.85;87.83;99295.02;108020;1306;22249;-40
2023/08/23 00:49:48;;;;;;;4.70;3.40;;;;;;;19.83;88.41;99298.36;108040;1306;22224;-39
2023/08/23 00:52:15;;;;;;;6.70;3.90;;;;;;;19.83;89.52;99294.82;108021;1306;22304;-40
2023/08/23 00:54:41;;;;;;;5.20;4.00;;;;;;;19.79;89.02;99293.76;108031;1288;22262;-38
2023/08/23 00:57:07;;;;;;;4.60;3.40;;;;;;;19.75;88.42;99298.43;108007;1306;22169;-40
2023/08/23 00:59:33;;;;;;;9.00;3.60;;;;;;;19.73;89.71;99296.95;108016;1306;22222;-38
2023/08/23 01:01:58;;;;;;;5.40;3.50;;;;;;;19.73;90.17;99293.80;108008;1306;22403;-38
2023/08/23 01:04:23;;;;;;;6.60;4.00;;;;;;;19.71;89.83;99299.85;108027;1306;22490;-39
2023/08/23 01:07:17;;;;;;;5.90;3.60;;;;;;;19.64;89.68;99302.10;107997;1306;22696;-39
2023/08/23 01:09:57;;;;;;;5.60;3.60;;;;;;;19.60;90.47;99300.87;108009;1306;22957;-38
2023/08/23 01:12:29;;;;;;;7.00;3.90;;;;;;;19.57;90.81;99301.44;108030;1306;22230;-40
2023/08/23 01:15:13;;;;;;;8.90;4.00;;;;;;;19.55;91.10;99298.98;108020;1306;22205;-40
2023/08/23 01:17:42;;;;;;;7.70;3.90;;;;;;;19.50;91.80;99303.19;108037;1306;22428;-40
2023/08/23 01:20:11;;;;;;;4.20;3.20;;;;;;;19.44;91.98;99304.84;108021;1306;23040;-40
2023/08/23 01:22:46;;;;;;;8.50;3.90;;;;;;;19.35;92.88;99305.08;108028;1306;22391;-43
2023/08/23 01:25:13;;;;;;;5.70;3.60;;;;;;;19.23;93.46;99302.60;108048;1306;22226;-41
2023/08/23 01:27:38;;;;;;;5.20;4.20;;;;;;;19.14;93.22;99300.10;108013;1306;22440;-38
2023/08/23 01:30:04;;;;;;;7.50;3.80;;;;;;;19.12;92.32;99296.85;108006;1306;22235;-38
2023/08/23 01:32:53;;;;;;;4.90;3.70;;;;;;;19.13;93.07;99300.13;108017;1306;22223;-40
2023/08/23 01:35:32;;;;;;;8.70;4.60;;;;;;;19.10;93.10;99297.23;108038;1288;22406;-38
2023/08/23 01:38:00;;;;;;;6.60;4.40;;;;;;;19.05;93.59;99295.98;108012;1306;22458;-40
2023/08/23 01:40:26;;;;;;;5.60;3.60;;;;;;;19.02;93.12;99292.45;108006;1306;22454;-38
2023/08/23 01:42:53;;;;;;;11.70;4.20;;;;;;;19.02;94.43;99292.27;108017;1286;22215;-39
2023/08/23 01:45:18;;;;;;;8.80;4.30;;;;;;;19.03;95.17;99290.55;108045;1306;23135;-38
2023/08/23 01:47:44;;;;;;;5.20;4.20;;;;;;;19.05;94.47;99288.12;108007;1288;22306;-40
2023/08/23 01:50:09;;;;;;;5.00;3.90;;;;;;;19.04;94.34;99293.83;108022;1306;22251;-40
2023/08/23 01:52:35;;;;;;;9.90;4.60;;;;;;;19.05;94.18;99295.35;108036;1306;22206;-39
2023/08/23 01:55:00;;;;;;;6.50;4.20;;;;;;;19.07;94.31;99301.08;108001;1306;22785;-40
2023/08/23 01:57:25;;;;;;;7.10;4.50;;;;;;;19.08;93.93;99303.46;108034;1306;22200;-38
2023/08/23 01:59:52;;;;;;;10.00;4.80;;;;;;;19.07;94.79;99302.48;108006;1306;22391;-39
2023/08/23 02:02:17;;;;;;;12.70;5.30;;;;;;;19.05;94.56;99304.74;108035;1293;22237;-40
2023/08/23 02:04:42;;;;;;;8.20;5.20;;;;;;;18.97;94.85;99307.16;108025;1306;22441;-38
2023/08/23 02:07:08;;;;;;;10.00;5.30;;;;;;;18.89;95.02;99309.05;108008;1306;23005;-38
2023/08/23 02:09:33;;;;;;;9.30;5.40;;;;;;;18.83;95.67;99316.70;108006;1289;22222;-39
2023/08/23 02:11:59;;;;;;;12.60;6.10;;;;;;;18.78;95.64;99315.14;108001;1288;22992;-37
2023/08/23 02:14:24;;;;;;;7.40;5.40;;;;;;;18.73;95.39;99309.40;108005;1306;22942;-39
2023/08/23 02:16:50;;;;;;;8.80;5.70;;;;;;;18.66;95.87;99312.31;108006;1306;22201;-40
2023/08/23 02:19:15;;;;;;;11.30;6.10;;;;;;;18.62;95.38;99312.52;107805;1306;22235;-40
2023/08/23 02:21:40;;;;;;;12.20;6.30;;;;;;;18.57;95.21;99315.77;107789;1307;22225;-40
2023/08/23 02:24:07;;;;;;;11.50;6.40;;;;;;;18.53;96.35;99313.48;107981;1306;22853;-38
2023/08/23 02:26:35;;;;;;;10.20;6.40;;;;;;;18.47;96.42;99313.65;108015;1306;22219;-39
2023/08/23 02:29:00;;;;;;;;;;;;;;;18.46;96.79;99311.13;108022;1306;23225;-40
2023/08/23 02:31:25;;;;;;;10.50;6.70;;;;;;;18.40;97.54;99307.88;107998;1306;23170;-37
2023/08/23 02:33:50;;;;;;;11.00;6.50;;;;;;;18.36;96.81;99305.00;108024;1306;22978;-40
2023/08/23 02:36:16;;;;;;;9.00;6.40;;;;;;;18.30;97.92;99302.31;108004;1306;22234;-40
2023/08/23 02:38:41;;;;;;;9.20;7.00;;;;;;;18.25;97.53;99299.04;108001;1306;22351;-40
2023/08/23 02:43:42;;;;;;;10.00;7.50;;;;;;;18.22;97.55;99303.91;106988;1303;544769;-40
2023/08/23 02:46:07;;;;;;;11.60;7.80;;;;;;;18.16;98.23;99304.77;107472;1312;22417;-40
2023/08/23 02:48:32;;;;;;;9.40;7.40;;;;;;;18.15;98.00;99302.25;107431;1305;22471;-39
2023/08/23 02:50:59;;;;;;;12.70;7.90;;;;;;;18.09;98.82;99306.28;107466;1312;22418;-41
2023/08/23 02:53:25;;;;;;;10.10;7.90;;;;;;;18.00;99.26;99315.20;107465;1312;22239;-39
2023/08/23 02:55:50;;;;;;;11.80;7.90;;;;;;;17.96;98.80;99318.37;107453;1312;22318;-39
2023/08/23 02:58:15;;;;;;;8.80;6.60;;;;;;;17.90;99.07;99326.30;107565;1310;123553;-40
2023/08/23 03:00:41;;;;;;;13.70;7.60;;;;;;;17.87;99.40;99327.30;107672;1289;22215;-40
2023/08/23 03:03:06;;;;;;;10.40;7.40;;;;;;;17.85;99.52;99324.99;107701;1286;22448;-39
2023/08/23 03:05:31;;;;;;;9.50;6.70;;;;;;;17.78;99.64;99323.95;107700;1309;22871;-40
2023/08/23 03:07:57;;;;;;;10.70;7.30;;;;;;;17.74;99.47;99327.35;107681;1310;22231;-41
2023/08/23 03:10:22;;;;;;;11.70;7.20;;;;;;;17.67;99.72;99335.56;107675;1309;22849;-42
2023/08/23 03:12:47;;;;;;;9.50;6.50;;;;;;;17.62;99.75;99336.27;107823;1308;23107;-39
2023/08/23 03:15:13;;;;;;;12.70;6.70;;;;;;;17.58;99.72;99333.08;107816;1308;22206;-40
2023/08/23 03:17:38;;;;;;;9.50;6.60;;;;;;;17.56;98.85;99337.84;107804;1308;23414;-40
2023/08/23 03:20:04;;;;;;;10.50;6.20;;;;;;;17.57;98.39;99337.98;107817;1308;22122;-40
2023/08/23 03:22:29;;;;;;;7.90;5.60;;;;;;;17.56;98.94;99340.33;107817;1308;22229;-41
2023/08/23 03:24:54;;;;;;;9.80;5.70;;;;;;;17.58;98.80;99339.60;107864;1308;22435;-41
2023/08/23 03:27:22;;;;;;;10.90;6.20;;;;;;;17.59;98.53;99340.22;107965;1307;23144;-38
2023/08/23 03:29:47;;;;;;;9.20;5.40;;;;;;;17.59;98.12;99342.36;107967;1307;23560;-41
2023/08/23 03:32:14;;;;;;;11.00;5.40;;;;;;;17.59;98.24;99340.24;107943;1307;22354;-42
2023/08/23 03:34:39;;;;;;;10.10;5.40;;;;;;;17.56;98.21;99340.67;107984;1308;22314;-39
2023/08/23 03:37:05;;;;;;;16.20;5.20;;;;;;;17.56;97.60;99341.08;107947;1307;22232;-41
2023/08/23 03:39:30;;;;;;;7.40;5.40;;;;;;;17.55;96.91;99343.82;107947;1307;22938;-40
2023/08/23 03:41:55;;;;;;;11.10;5.10;;;;;;;17.55;96.70;99346.30;107930;1307;22236;-39
2023/08/23 03:44:21;;;;;;;11.20;5.30;;;;;;;17.55;96.89;99345.75;107954;1299;22245;-40
2023/08/23 03:46:46;;;;;;;7.60;4.60;;;;;;;17.55;96.47;99344.02;108001;1289;23338;-40
2023/08/23 03:49:11;;;;;;;8.40;4.80;;;;;;;17.54;95.99;99341.35;107986;1307;22515;-40
2023/08/23 03:51:37;;;;;;;7.20;4.60;;;;;;;17.54;96.41;99338.34;107977;1307;22585;-39
2023/08/23 03:54:02;;;;;;;7.90;5.00;;;;;;;17.58;96.45;99341.80;107974;1307;22537;-41
2023/08/23 03:56:27;;;;;;;9.00;4.30;;;;;;;17.60;95.76;99343.23;107970;1307;23322;-40
2023/08/23 03:58:53;;;;;;;9.30;5.00;;;;;;;17.59;95.86;99349.80;107971;1307;22711;-40
2023/08/23 04:01:19;;;;;;;7.90;5.00;;;;;;;17.61;95.90;99349.63;107995;1307;22219;-40
2023/08/23 04:03:44;;;;;;;10.50;5.30;;;;;;;17.62;95.73;99354.73;107976;1307;23318;-39
2023/08/23 04:06:09;;;;;;;9.30;5.00;;;;;;;17.61;95.56;99353.02;107999;1307;22212;-38
2023/08/23 04:08:35;;;;;;;9.10;5.40;;;;;;;17.60;95.90;99352.23;107977;1307;23108;-38
2023/08/23 04:11:00;;;;;;;7.90;4.60;;;;;;;17.56;95.66;99354.30;107951;1307;23303;-39
2023/08/23 04:13:25;;;;;;;8.60;4.70;;;;;;;17.54;95.53;99348.98;107986;1307;22229;-39
2023/08/23 04:15:50;;;;;;;11.90;5.70;;;;;;;17.51;95.13;99352.46;107971;1307;22933;-41
2023/08/23 04:18:16;;;;;;;11.50;5.30;;;;;;;17.50;95.45;99349.04;107960;1307;22509;-41
2023/08/23 04:20:41;;;;;;;8.90;5.00;;;;;;;17.51;95.40;99348.36;108001;1307;23463;-39
2023/08/23 04:23:07;;;;;;;10.60;5.30;;;;;;;17.51;95.48;99350.14;108013;1307;22387;-40
2023/08/23 04:25:32;;;;;;;12.10;5.40;;;;;;;17.50;95.77;99342.10;108003;1287;22426;-40
2023/08/23 04:27:57;;;;;;;8.20;5.40;;;;;;;17.54;95.34;99342.27;107972;1307;23404;-41
2023/08/23 04:30:23;;;;;;;7.70;5.30;;;;;;;17.56;94.65;99343.36;107961;1307;22858;-39
2023/08/23 04:32:49;;;;;;;6.90;5.10;;;;;;;17.55;94.38;99345.23;108003;1289;22469;-41
2023/08/23 04:35:14;;;;;;;11.20;5.50;;;;;;;17.55;95.46;99348.56;107986;1307;23032;-40
2023/08/23 04:37:40;;;;;;;10.70;5.30;;;;;;;17.56;95.67;99348.98;107985;1307;22280;-39
2023/08/23 04:40:08;;;;;;;8.80;5.20;;;;;;;17.57;95.35;99349.61;108010;1307;22319;-41
2023/08/23 04:42:36;;;;;;;9.20;5.00;;;;;;;17.61;95.28;99350.59;108094;1306;23068;-39
2023/08/23 04:45:02;;;;;;;9.90;5.00;;;;;;;17.64;95.36;99355.30;108086;1306;22961;-42
2023/08/23 04:47:27;;;;;;;7.40;4.90;;;;;;;17.66;95.17;99356.52;108079;1306;22630;-39
2023/08/23 04:49:53;;;;;;;13.50;5.20;;;;;;;17.69;95.34;99360.77;108078;1306;22411;-41
2023/08/23 04:52:18;;;;;;;11.90;5.00;;;;;;;17.69;95.21;99362.54;108083;1306;22405;-41
2023/08/23 04:54:43;;;;;;;5.60;4.50;;;;;;;17.69;94.46;99362.82;108066;1306;22957;-39
2023/08/23 04:57:09;;;;;;;17.60;5.30;;;;;;;17.73;94.32;99367.45;108056;1306;22203;-41
2023/08/23 04:59:34;;;;;;;11.20;4.10;;;;;;;17.75;94.32;99364.32;108062;1306;22429;-38
2023/08/23 05:01:59;;;;;;;10.80;4.10;;;;;;;17.74;93.74;99369.16;107410;1306;22561;-37
2023/08/23 05:04:24;;;;;;;5.60;3.50;;;;;;;17.73;93.11;99371.73;106958;1306;22556;-37
2023/08/23 05:06:50;;;;;;;10.80;4.10;;;;;;;17.72;93.03;99372.21;107390;1306;24485;-41
2023/08/23 05:09:15;;;;;;;7.70;4.70;;;;;;;17.73;93.21;99374.55;108081;1306;22375;-39
2023/08/23 05:11:40;;;;;;;12.40;3.90;;;;;;;17.76;93.37;99375.40;108094;1306;22323;-40
2023/08/23 05:14:06;;;;;;;11.60;4.10;;;;;;;17.81;92.80;99370.58;108092;1307;22322;-38
2023/08/23 05:16:31;;;;;;;11.30;3.90;;;;;;;17.84;92.95;99369.77;108070;1306;22392;-39
2023/08/23 05:18:57;;;;;;;11.30;3.70;;;;;;;17.82;92.30;99369.02;107817;1306;22405;-41
2023/08/23 05:21:22;;;;;;;10.00;3.90;;;;;;;17.82;91.84;99372.94;108081;1306;22990;-41
2023/08/23 05:23:47;;;;;;;7.50;3.90;;;;;;;17.85;92.13;99375.69;108082;1306;22200;-40
2023/08/23 05:26:13;;;;;;;10.00;4.30;;;;;;;17.90;91.83;99379.02;108070;1306;22508;-41
2023/08/23 05:28:38;;;;;;;7.10;3.60;;;;;;;17.90;91.47;99382.96;108088;1306;22249;-40
2023/08/23 05:31:03;;;;;;;8.00;4.30;;;;;;;17.89;91.54;99385.36;108085;1306;23158;-42
2023/08/23 05:33:29;;;;;;;10.10;4.00;;;;;;;17.92;90.96;99379.06;108087;1306;22254;-40
2023/08/23 05:35:54;;;;;;;7.00;3.00;;;;;;;17.94;90.59;99378.02;108082;1292;22924;-41
2023/08/23 05:38:20;;;;;;;5.80;3.10;;;;;;;17.96;90.46;99382.05;107832;1306;22244;-42
2023/08/23 05:40:45;;;;;;;4.90;3.50;;;;;;;17.98;90.43;99380.63;108103;1292;22412;-39
2023/08/23 05:43:11;;;;;;;9.70;3.30;;;;;;;18.03;90.14;99379.88;108110;1306;22387;-39
2023/08/23 05:45:36;;;;;;;5.10;3.40;;;;;;;18.03;89.83;99380.73;108075;1306;22456;-42
2023/08/23 05:48:02;;;;;;;10.40;4.00;;;;;;;18.04;89.44;99384.24;108103;1283;22472;-41
2023/08/23 05:50:27;;;;;;;8.50;3.30;;;;;;;18.09;89.46;99388.66;108097;1306;22639;-38
2023/08/23 05:52:53;;;;;;;8.20;3.20;;;;;;;18.12;89.18;99387.51;108090;1306;22232;-40
2023/08/23 05:55:18;;;;;;;7.10;2.90;;;;;;;18.15;88.28;99389.20;108074;1306;22442;-41
2023/08/23 05:57:44;;;;;;;5.20;3.10;;;;;;;18.15;87.38;99394.27;108094;1306;22221;-39
2023/08/23 06:00:10;;;;;;;8.80;3.50;;;;;;;18.13;86.22;99396.65;108082;1306;23125;-39
2023/08/23 06:02:36;;;;;;;7.30;2.80;;;;;;;18.12;85.84;99396.51;108093;1306;22324;-49
2023/08/23 06:05:02;;;;;;;10.80;2.90;;;;;;;18.17;85.80;99398.02;108116;1306;22240;-41
2023/08/23 06:07:28;;;;;;;9.20;3.10;;;;;;;18.18;84.77;99397.04;108111;1306;23050;-41
2023/08/23 06:09:53;;;;;;;16.10;3.00;;;;;;;18.21;84.12;99393.84;108097;1306;22229;-42
2023/08/23 06:12:19;;;;;;;7.70;2.80;;;;;;;18.22;81.98;99392.30;108092;1306;23315;-41
2023/08/23 06:14:44;;;;;;;8.10;2.90;;;;;;;18.26;81.99;99390.00;108104;1306;22462;-42
2023/08/23 06:17:10;;;;;;;6.90;2.60;;;;;;;18.29;81.77;99392.55;108122;1289;22248;-42
2023/08/23 06:19:35;;;;;;;8.40;2.80;;;;;;;18.35;82.77;99394.86;108099;1306;22425;-39
2023/08/23 06:22:00;;;;;;;11.40;3.00;;;;;;;18.41;82.89;99400.59;108077;1306;22301;-41
2023/08/23 06:24:26;;;;;;;8.40;2.80;;;;;;;18.47;82.49;99406.30;108099;1306;22399;-42
2023/08/23 06:26:51;;;;;;;7.80;3.20;;;;;;;18.53;81.68;99407.38;108087;1306;22398;-41
2023/08/23 06:29:17;;;;;;;6.30;2.40;;;;;;;18.58;81.53;99406.38;108095;1306;23965;-41
2023/08/23 06:31:42;;;;;;;4.10;2.50;;;;;;;18.63;81.51;99404.37;108136;1306;22581;-42
2023/08/23 06:34:08;;;;;;;17.30;2.70;;;;;;;18.69;81.10;99406.86;108092;1306;22227;-43
2023/08/23 06:36:33;;;;;;;9.60;2.50;;;;;;;18.71;79.24;99405.44;108105;1306;23000;-41
2023/08/23 06:38:58;;;;;;;7.40;2.20;;;;;;;18.75;78.90;99406.71;108102;1306;22681;-42
2023/08/23 06:41:24;;;;;;;4.50;2.30;;;;;;;18.80;78.40;99403.95;108094;1306;22439;-42
2023/08/23 06:43:58;;;;;;;8.70;2.60;;;;;;;18.84;77.15;99411.17;108096;1306;22111;-42
2023/08/23 06:46:23;;;;;;;6.80;2.40;;;;;;;18.88;77.08;99410.95;108124;1306;22485;-41
2023/08/23 06:48:49;;;;;;;5.30;2.20;;;;;;;18.92;77.22;99412.90;108093;1306;22259;-40
2023/08/23 06:51:14;;;;;;;6.30;2.30;;;;;;;18.97;77.07;99411.56;108122;1306;23225;-40
2023/08/23 06:53:39;;;;;;;3.60;2.20;;;;;;;19.02;74.58;99410.64;108107;1282;22426;-39
2023/08/23 06:56:07;;;;;;;6.60;2.10;;;;;;;19.08;75.45;99411.48;108122;1306;23383;-39
2023/08/23 06:58:33;;;;;;;7.50;2.20;;;;;;;19.13;75.85;99411.59;108082;1306;22275;-40
2023/08/23 07:00:58;;;;;;;8.00;2.00;;;;;;;19.15;74.66;99412.25;108100;1306;22233;-39
2023/08/23 07:03:23;;;;;;;6.10;2.10;;;;;;;19.22;73.74;99414.90;108097;1306;22351;-41
2023/08/23 07:05:49;;;;;;;6.90;2.00;;;;;;;19.26;72.44;99415.95;108095;1306;22309;-40
2023/08/23 07:08:14;;;;;;;3.10;1.70;;;;;;;19.30;71.68;99417.93;108100;1306;22327;-39
2023/08/23 07:10:39;;;;;;;6.80;1.60;;;;;;;19.33;70.78;99417.81;108093;1306;22471;-40
2023/08/23 07:13:05;;;;;;;2.80;1.50;;;;;;;19.38;70.39;99415.41;108117;1306;22531;-39
2023/08/23 07:15:30;;;;;;;7.60;1.90;;;;;;;19.41;69.77;99421.02;108101;1306;22269;-41
2023/08/23 07:17:55;;;;;;;6.70;1.70;;;;;;;19.45;69.93;99422.18;108103;1306;22631;-40
2023/08/23 07:20:20;;;;;;;4.50;1.90;;;;;;;19.52;68.74;99421.74;108107;1306;24424;-41
2023/08/23 07:22:46;;;;;;;7.80;1.70;;;;;;;19.57;66.14;99425.05;108112;1306;22881;-40
2023/08/23 07:25:11;;;;;;;3.30;1.30;;;;;;;19.65;68.40;99419.53;108117;1306;22248;-38
2023/08/23 07:27:36;;;;;;;4.70;1.60;;;;;;;19.70;67.06;99419.81;108110;1306;22312;-40
2023/08/23 07:30:03;;;;;;;4.10;1.50;;;;;;;19.74;66.98;99422.64;108098;1306;23079;-39
2023/08/23 07:32:30;;;;;;;4.70;1.50;;;;;;;19.79;64.74;99427.03;108128;1306;22202;-38
2023/08/23 07:34:56;;;;;;;4.40;1.50;;;;;;;19.85;64.53;99435.20;108118;1306;22804;-39
2023/08/23 07:37:22;;;;;;;4.00;1.50;;;;;;;19.89;63.70;99435.16;108087;1306;22216;-39
2023/08/23 07:39:48;;;;;;;4.20;1.80;;;;;;;19.95;65.11;99433.58;108120;1306;22239;-39
2023/08/23 07:42:13;;;;;;;5.70;1.50;;;;;;;19.98;65.17;99431.16;108094;1306;22337;-39
2023/08/23 07:44:39;;;;;;;4.50;1.50;;;;;;;20.03;65.21;99433.55;108107;1306;22438;-40
2023/08/23 07:47:04;;;;;;;6.00;1.90;;;;;;;20.12;65.13;99440.02;108107;1289;22415;-42
2023/08/23 07:49:29;;;;;;;4.00;1.60;;;;;;;20.19;65.82;99440.10;108110;1283;22325;-41
2023/08/23 07:51:55;;;;;;;3.60;1.50;;;;;;;20.24;65.64;99438.85;108104;1306;22976;-41
2023/08/23 07:54:20;;;;;;;2.90;1.70;;;;;;;20.30;65.34;99439.38;108094;1306;23173;-40
2023/08/23 07:56:45;;;;;;;5.80;1.80;;;;;;;20.37;64.90;99440.01;108109;1306;22451;-42
2023/08/23 07:59:10;;;;;;;5.30;1.90;;;;;;;20.43;64.86;99438.87;108150;1283;22457;-39
2023/08/23 08:01:36;;;;;;;7.70;2.10;;;;;;;20.47;63.35;99440.30;108132;1306;22200;-40
2023/08/23 08:04:01;;;;;;;3.10;1.60;;;;;;;20.54;64.73;99441.96;108122;1306;22197;-39
2023/08/23 08:06:26;;;;;;;4.80;1.80;;;;;;;20.60;64.87;99442.67;108128;1306;22328;-40
2023/08/23 08:08:52;;;;;;;8.70;2.10;;;;;;;20.67;64.01;99444.88;108127;1282;22375;-40
2023/08/23 08:11:18;;;;;;;9.00;2.20;;;;;;;20.68;63.55;99440.63;108097;1306;22505;-42
2023/08/23 08:13:43;;;;;;;4.80;1.60;;;;;;;20.72;62.37;99439.95;107732;1306;22478;-42
2023/08/23 08:16:10;;;;;;;2.80;1.40;;;;;;;20.78;62.65;99441.19;108130;1306;22416;-40
2023/08/23 08:18:36;;;;;;;6.80;2.30;;;;;;;20.82;62.21;99443.61;108136;1306;22292;-40
2023/08/23 08:21:01;;;;;;;3.00;1.70;;;;;;;20.90;63.15;99439.47;108149;1306;22898;-41
2023/08/23 08:23:27;;;;;;;5.90;2.00;;;;;;;21.01;63.62;99437.70;108110;1306;22279;-40
2023/08/23 08:25:52;;;;;;;4.90;1.80;;;;;;;21.08;62.92;99436.09;107878;1306;22425;-42
2023/08/23 08:28:17;;;;;;;5.20;1.50;;;;;;;21.16;61.33;99432.90;108135;1306;22553;-40
2023/08/23 08:30:43;;;;;;;6.60;2.00;;;;;;;21.22;60.86;99430.52;108122;1306;23198;-40
2023/08/23 08:33:08;;;;;;;2.70;1.50;;;;;;;21.25;59.91;99427.66;107852;1306;22221;-39
2023/08/23 08:35:33;;;;;;;6.10;1.70;;;;;;;21.30;59.75;99421.66;108095;1306;22235;-38
2023/08/23 08:37:58;;;;;;;4.70;1.60;;;;;;;21.38;59.83;99427.30;108126;1306;22233;-39
2023/08/23 08:40:24;;;;;;;3.50;1.50;;;;;;;21.51;60.48;99431.91;108097;1306;22280;-38
2023/08/23 08:42:50;;;;;;;4.80;1.50;;;;;;;21.60;58.79;99436.05;108099;1306;23328;-39
2023/08/23 08:45:15;;;;;;;2.80;1.60;;;;;;;21.69;58.79;99439.32;108108;1306;22471;-39
2023/08/23 08:47:42;;;;;;;3.90;1.70;;;;;;;21.76;57.99;99439.12;108111;1306;22413;-39
2023/08/23 08:50:07;;;;;;;11.30;1.60;;;;;;;21.88;58.40;99441.30;108102;1306;22419;-40
2023/08/23 08:52:33;;;;;;;6.30;1.40;;;;;;;22.01;58.44;99447.67;108117;1306;22810;-40
2023/08/23 08:55:00;;;;;;;5.50;1.60;;;;;;;22.16;58.26;99451.71;108098;1306;22938;-38
2023/08/23 08:57:27;;;;;;;3.50;1.40;;;;;;;22.34;58.47;99459.80;108115;1282;22952;-39
2023/08/23 08:59:55;;;;;;;;;;;;;;;22.54;58.28;99463.45;108129;1306;22892;-41
2023/08/23 09:02:23;;;;;;;6.30;1.60;;;;;;;22.77;58.11;99467.45;108101;1306;22303;-40
2023/08/23 09:04:50;;;;;;;4.10;1.80;;;;;;;22.97;54.26;99471.91;108131;1306;22751;-40
2023/08/23 09:07:15;;;;;;;7.30;2.20;;;;;;;23.09;52.84;99472.40;108130;1306;23098;-40
2023/08/23 09:09:43;;;;;;;6.80;1.70;;;;;;;23.28;53.73;99468.11;108094;1306;22244;-43
2023/08/23 09:12:08;;;;;;;2.30;1.50;;;;;;;23.53;54.36;99462.77;108121;1306;23299;-42
2023/08/23 09:14:33;;;;;;;4.20;1.50;;;;;;;23.79;54.91;99463.27;108097;1306;22496;-42
2023/08/23 09:16:59;;;;;;;3.90;1.50;;;;;;;24.14;53.89;99466.64;108114;1282;22234;-41
2023/08/23 09:19:24;;;;;;;2.70;1.40;;;;;;;24.41;49.44;99466.98;108121;1306;23732;-42
2023/08/23 09:21:52;;;;;;;3.40;1.40;;;;;;;24.75;47.27;99465.41;108110;1306;22301;-40
2023/08/23 09:24:18;;;;;;;5.70;1.60;;;;;;;25.12;46.26;99461.42;107842;1306;23198;-42
2023/08/23 09:26:44;;;;;;;5.10;1.70;;;;;;;25.66;46.80;99456.91;108114;1306;22708;-39
